Time;durP1;ratioP1;P1;durP2;ratioP2;P2;SDS_P1;SDS_P2;PMS_P1;PMS_P2;Temp;Humidity;BMP_temperature;BMP_pressure;BME280_temperature;BME280_humidity;BME280_pressure;Samples;Min_cycle;Max_cycle;Signal;HPM_P1;HPM_P2
2021/06/17 00:01:31;;;;;;;10.57;9.50;;;20.70;97.30;;;;;;5027217;28;20458;-45
2021/06/17 00:03:59;;;;;;;13.52;10.55;;;20.70;97.50;;;;;;5014692;28;20071;-43
2021/06/17 00:06:28;;;;;;;16.75;11.32;;;20.70;97.80;;;;;;5027263;28;20054;-47
2021/06/17 00:08:54;;;;;;;10.73;9.68;;;20.70;97.90;;;;;;5008382;28;20045;-42
2021/06/17 00:11:22;;;;;;;13.73;11.55;;;20.60;97.90;;;;;;5007332;28;20054;-41
2021/06/17 00:13:51;;;;;;;11.88;10.70;;;20.60;98.10;;;;;;5008084;28;20050;-44
2021/06/17 00:16:18;;;;;;;13.00;10.90;;;20.60;98.30;;;;;;5025592;28;20150;-45
2021/06/17 00:18:49;;;;;;;12.27;10.98;;;20.50;98.50;;;;;;5027437;28;20130;-42
2021/06/17 00:21:15;;;;;;;15.63;11.32;;;20.50;98.60;;;;;;5026762;28;20048;-47
2021/06/17 00:23:42;;;;;;;14.13;11.38;;;20.50;98.80;;;;;;5029565;28;20041;-41
2021/06/17 00:26:10;;;;;;;15.57;12.80;;;20.50;99.00;;;;;;5026922;28;20056;-42
2021/06/17 00:28:39;;;;;;;14.07;10.02;;;20.40;99.20;;;;;;5027411;28;20386;-50
2021/06/17 00:31:05;;;;;;;13.75;11.13;;;20.40;99.30;;;;;;5013570;28;20045;-48
2021/06/17 00:33:32;;;;;;;12.90;11.60;;;20.40;99.60;;;;;;5007652;28;20046;-42
2021/06/17 00:36:01;;;;;;;14.55;12.13;;;20.40;99.70;;;;;;5012615;28;20127;-44
2021/06/17 00:38:30;;;;;;;13.57;12.27;;;20.30;99.80;;;;;;5016418;28;20054;-47
2021/06/17 00:40:56;;;;;;;12.52;11.20;;;20.40;99.90;;;;;;5008929;28;20046;-43
2021/06/17 00:43:24;;;;;;;15.00;12.25;;;20.30;99.80;;;;;;5007719;28;20129;-41
2021/06/17 00:45:52;;;;;;;14.93;12.27;;;20.40;99.90;;;;;;5015079;28;20506;-43
2021/06/17 00:48:18;;;;;;;13.82;12.48;;;20.30;99.90;;;;;;5016384;28;20085;-42
2021/06/17 00:50:51;;;;;;;15.32;13.48;;;20.20;99.90;;;;;;5011646;28;20057;-44
2021/06/17 00:53:21;;;;;;;14.43;12.82;;;20.20;99.90;;;;;;5029554;28;20497;-43
2021/06/17 00:55:50;;;;;;;13.27;11.98;;;20.20;99.90;;;;;;5031039;28;20797;-40
2021/06/17 00:58:18;;;;;;;13.50;12.10;;;20.20;99.90;;;;;;5018234;28;20144;-40
2021/06/17 01:00:45;;;;;;;14.90;13.38;;;20.20;99.90;;;;;;5024476;28;20072;-39
2021/06/17 01:03:14;;;;;;;15.32;13.75;;;20.20;99.90;;;;;;5030852;28;20418;-48
2021/06/17 01:05:41;;;;;;;14.43;13.02;;;20.10;99.90;;;;;;5032332;28;20429;-47
2021/06/17 01:08:28;;;;;;;14.65;13.25;;;20.10;99.90;;;;;;5023710;28;20098;-41
2021/06/17 01:11:10;;;;;;;14.30;12.80;;;20.10;99.90;;;;;;5011919;28;20575;-43
2021/06/17 01:13:54;;;;;;;16.20;14.43;;;20.00;99.90;;;;;;5010912;28;20593;-44
2021/06/17 01:16:55;;;;;;;16.30;14.45;;;20.00;99.90;;;;;;5011290;28;20553;-46
2021/06/17 01:19:30;;;;;;;16.45;14.85;;;20.00;99.90;;;;;;4988031;28;20050;-45
2021/06/17 01:22:08;;;;;;;17.90;15.93;;;20.00;99.90;;;;;;4988000;28;20058;-43
2021/06/17 01:24:40;;;;;;;19.27;16.80;;;19.90;99.90;;;;;;5005415;28;20092;-40
2021/06/17 01:27:24;;;;;;;;;;;19.90;99.90;;;;;;5007981;28;20069;-44
2021/06/17 01:30:01;;;;;;;18.73;16.83;;;19.90;99.90;;;;;;5001577;28;19921;-48
2021/06/17 01:32:28;;;;;;;18.70;16.83;;;19.90;99.90;;;;;;4989009;28;20046;-48
2021/06/17 01:34:55;;;;;;;18.67;16.98;;;19.90;99.90;;;;;;4987747;28;20050;-43
2021/06/17 01:37:24;;;;;;;17.67;16.13;;;19.80;99.90;;;;;;4988914;28;20057;-44
2021/06/17 01:39:53;;;;;;;18.35;16.75;;;19.80;99.90;;;;;;4987802;28;20209;-43
2021/06/17 01:42:24;;;;;;;18.52;16.55;;;19.80;99.90;;;;;;4987625;28;20047;-48
2021/06/17 01:44:56;;;;;;;18.75;17.02;;;19.80;99.90;;;;;;4995908;28;20053;-41
2021/06/17 01:47:26;;;;;;;21.58;17.35;;;19.80;99.90;;;;;;5006790;28;20046;-41
2021/06/17 01:49:53;;;;;;;19.70;17.70;;;19.70;99.90;;;;;;5003170;28;20421;-46
2021/06/17 01:52:24;;;;;;;20.25;18.55;;;19.70;99.90;;;;;;4971100;28;20458;-44
2021/06/17 01:54:56;;;;;;;19.75;17.77;;;19.70;99.90;;;;;;5000160;28;20135;-41
2021/06/17 01:57:26;;;;;;;19.67;17.73;;;19.70;99.90;;;;;;5032144;28;20072;-51
2021/06/17 01:59:55;;;;;;;19.92;17.98;;;19.70;99.90;;;;;;5028490;28;20075;-43
2021/06/17 02:02:24;;;;;;;21.60;19.67;;;19.70;99.90;;;;;;5028996;28;20734;-43
2021/06/17 02:04:54;;;;;;;19.92;18.10;;;19.70;99.90;;;;;;5025607;28;20497;-42
2021/06/17 02:07:22;;;;;;;20.42;18.42;;;19.70;99.90;;;;;;5020211;28;20057;-43
2021/06/17 02:09:51;;;;;;;21.33;19.42;;;19.70;99.90;;;;;;5017832;28;20130;-44
2021/06/17 02:12:17;;;;;;;22.27;20.10;;;19.70;99.90;;;;;;5008980;28;20383;-43
2021/06/17 02:14:45;;;;;;;23.15;21.05;;;19.70;99.90;;;;;;5015778;28;20759;-45
2021/06/17 02:17:15;;;;;;;21.45;19.55;;;19.60;99.90;;;;;;5031764;28;20041;-43
2021/06/17 02:19:43;;;;;;;23.13;20.90;;;19.60;99.90;;;;;;5028865;28;20099;-41
2021/06/17 02:22:13;;;;;;;23.00;21.00;;;19.60;99.90;;;;;;5031182;28;20048;-42
2021/06/17 02:24:55;;;;;;;22.30;20.13;;;19.60;99.90;;;;;;5017016;28;20049;-43
2021/06/17 02:27:28;;;;;;;24.88;22.60;;;19.60;99.90;;;;;;5026645;28;20041;-47
2021/06/17 02:30:03;;;;;;;24.15;21.58;;;19.60;99.90;;;;;;5031918;28;20041;-45
2021/06/17 02:32:31;;;;;;;22.75;20.77;;;19.60;99.90;;;;;;5030953;28;20064;-41
2021/06/17 02:35:03;;;;;;;22.60;20.20;;;19.60;99.90;;;;;;5026141;28;20072;-42
2021/06/17 02:37:36;;;;;;;22.73;20.55;;;19.60;99.90;;;;;;5025453;28;20433;-45
2021/06/17 02:40:04;;;;;;;23.67;21.40;;;19.60;99.90;;;;;;5027662;28;20100;-43
2021/06/17 02:42:33;;;;;;;23.45;21.42;;;19.60;99.90;;;;;;5028704;28;20049;-40
2021/06/17 02:45:00;;;;;;;25.15;22.77;;;19.60;99.90;;;;;;5028990;28;20057;-47
2021/06/17 02:47:26;;;;;;;26.33;23.85;;;19.60;99.90;;;;;;5031353;28;20417;-41
2021/06/17 02:49:52;;;;;;;26.20;23.83;;;19.60;99.90;;;;;;5012656;28;20501;-42
2021/06/17 02:52:18;;;;;;;25.33;23.02;;;19.60;99.90;;;;;;5016901;28;20129;-42
2021/06/17 02:54:45;;;;;;;26.55;24.13;;;19.60;99.90;;;;;;5017609;28;20152;-45
2021/06/17 02:57:30;;;;;;;28.60;26.02;;;19.60;99.90;;;;;;5028218;28;20508;-41
2021/06/17 03:00:02;;;;;;;28.67;25.70;;;19.70;99.90;;;;;;5028142;28;20709;-43
2021/06/17 03:03:09;;;;;;;26.52;24.13;;;19.70;99.90;;;;;;5028035;28;20049;-45
2021/06/17 03:05:41;;;;;;;28.63;26.23;;;19.60;99.90;;;;;;5027787;28;20041;-45
2021/06/17 03:08:51;;;;;;;28.38;26.08;;;19.70;99.90;;;;;;5015412;28;20134;-42
2021/06/17 03:11:21;;;;;;;28.58;26.17;;;19.70;99.90;;;;;;5007678;28;20077;-41
2021/06/17 03:13:55;;;;;;;29.38;26.67;;;19.70;99.90;;;;;;5008777;28;20088;-40
2021/06/17 03:16:26;;;;;;;30.27;27.60;;;19.70;99.90;;;;;;5024024;28;20049;-41
2021/06/17 03:18:55;;;;;;;28.92;26.42;;;19.80;99.90;;;;;;5031152;28;20041;-41
2021/06/17 03:21:23;;;;;;;28.90;26.42;;;19.80;99.90;;;;;;5035061;28;20091;-42
2021/06/17 03:23:56;;;;;;;28.95;26.50;;;19.70;99.90;;;;;;5009645;28;20521;-42
2021/06/17 03:26:26;;;;;;;28.95;26.20;;;19.80;99.90;;;;;;5021072;28;20416;-44
2021/06/17 03:28:55;;;;;;;29.88;27.15;;;19.70;99.90;;;;;;5026751;28;20136;-41
2021/06/17 03:31:22;;;;;;;28.10;25.83;;;19.70;99.90;;;;;;5027355;28;20045;-41
2021/06/17 03:33:50;;;;;;;29.90;27.25;;;19.70;99.90;;;;;;5014490;28;20126;-54
2021/06/17 03:36:17;;;;;;;29.73;27.13;;;19.70;99.90;;;;;;5026085;28;20094;-41
2021/06/17 03:38:47;;;;;;;28.42;25.92;;;19.70;99.90;;;;;;5026611;28;20129;-43
2021/06/17 03:41:14;;;;;;;28.92;26.33;;;19.80;99.90;;;;;;5020730;28;20064;-42
2021/06/17 03:43:43;;;;;;;28.13;25.65;;;19.80;99.90;;;;;;5027333;28;20057;-41
2021/06/17 03:46:10;;;;;;;26.90;24.45;;;19.80;99.90;;;;;;5028479;28;20100;-43
2021/06/17 03:48:43;;;;;;;27.02;24.52;;;19.80;99.90;;;;;;5027842;28;20037;-41
2021/06/17 03:51:12;;;;;;;27.77;25.20;;;19.80;99.90;;;;;;5027488;28;20512;-45
2021/06/17 03:53:40;;;;;;;28.60;25.98;;;19.80;99.90;;;;;;5029435;28;20048;-43
2021/06/17 03:56:09;;;;;;;30.23;27.45;;;19.90;99.90;;;;;;5032198;28;20052;-43
2021/06/17 03:58:36;;;;;;;28.67;26.05;;;19.90;99.90;;;;;;5026994;28;20046;-44
2021/06/17 04:01:06;;;;;;;27.83;25.45;;;19.90;99.90;;;;;;5017300;28;20398;-40
2021/06/17 04:03:35;;;;;;;28.02;25.50;;;19.90;99.90;;;;;;5008405;28;20049;-41
2021/06/17 04:06:08;;;;;;;28.95;26.25;;;19.90;99.90;;;;;;5024881;28;20056;-43
2021/06/17 04:08:44;;;;;;;26.38;24.08;;;19.90;99.90;;;;;;5018694;28;20179;-42
2021/06/17 04:11:13;;;;;;;27.58;25.15;;;19.90;99.90;;;;;;5026368;28;20060;-46
2021/06/17 04:13:41;;;;;;;26.42;24.05;;;20.00;99.90;;;;;;5027281;28;20587;-43
2021/06/17 04:16:29;;;;;;;26.02;23.75;;;20.00;99.90;;;;;;5025950;28;20049;-44
2021/06/17 04:18:56;;;;;;;27.05;24.67;;;20.00;99.90;;;;;;5027280;28;20760;-45
2021/06/17 04:21:24;;;;;;;26.33;24.05;;;20.10;99.90;;;;;;5025147;28;20749;-42
2021/06/17 04:23:54;;;;;;;25.33;23.13;;;20.10;99.90;;;;;;5026293;28;20049;-43
2021/06/17 04:26:23;;;;;;;25.58;23.45;;;20.20;99.90;;;;;;5026944;28;20037;-45
2021/06/17 04:28:53;;;;;;;25.05;22.83;;;20.20;99.90;;;;;;5034109;28;20091;-43
2021/06/17 04:31:20;;;;;;;26.05;23.92;;;20.30;99.90;;;;;;5013029;28;20398;-44
2021/06/17 04:33:48;;;;;;;24.60;22.42;;;20.30;99.90;;;;;;5010651;28;20042;-43
2021/06/17 04:36:14;;;;;;;26.35;24.02;;;20.40;99.90;;;;;;5023097;28;20045;-45
2021/06/17 04:38:41;;;;;;;26.67;24.02;;;20.40;99.90;;;;;;5027169;28;20050;-48
2021/06/17 04:41:10;;;;;;;23.42;21.42;;;20.50;99.90;;;;;;5027036;28;20072;-44
2021/06/17 04:43:37;;;;;;;24.60;22.35;;;20.50;99.90;;;;;;5025958;28;20045;-44
2021/06/17 04:46:04;;;;;;;25.05;22.83;;;20.60;99.90;;;;;;5022398;28;20056;-42
2021/06/17 04:48:34;;;;;;;24.70;22.45;;;20.70;99.90;;;;;;5030673;28;20044;-47
2021/06/17 04:51:05;;;;;;;25.13;22.73;;;20.70;99.90;;;;;;5026856;28;20049;-43
2021/06/17 04:53:34;;;;;;;25.52;23.20;;;20.80;99.90;;;;;;5023250;28;20049;-42
2021/06/17 04:56:00;;;;;;;24.25;21.80;;;20.80;99.90;;;;;;5007023;28;20211;-48
2021/06/17 04:58:29;;;;;;;23.90;21.60;;;20.80;99.90;;;;;;5020899;28;20053;-46
2021/06/17 05:00:55;;;;;;;23.42;21.25;;;20.90;99.90;;;;;;5014824;28;20425;-42
2021/06/17 05:03:22;;;;;;;22.75;20.60;;;21.00;99.90;;;;;;5012193;28;20557;-46
2021/06/17 05:05:49;;;;;;;22.23;20.33;;;21.10;99.90;;;;;;5009341;28;20141;-42
2021/06/17 05:13:31;;;;;;;20.38;18.48;;;21.90;99.90;;;;;;5013564;28;20473;-51
2021/06/17 05:16:01;;;;;;;20.85;18.85;;;22.20;99.90;;;;;;5018982;28;20053;-54
2021/06/17 05:18:28;;;;;;;20.60;18.65;;;22.40;99.90;;;;;;5012600;28;20131;-51
2021/06/17 05:20:58;;;;;;;19.25;17.45;;;22.60;99.90;;;;;;5020991;28;20042;-49
2021/06/17 05:23:26;;;;;;;18.83;17.13;;;22.90;99.50;;;;;;5007556;28;20046;-55
2021/06/17 05:25:56;;;;;;;18.50;16.90;;;23.10;99.20;;;;;;5022575;28;20560;-51
2021/06/17 05:28:25;;;;;;;18.45;16.75;;;23.30;98.70;;;;;;5026687;28;20084;-49
2021/06/17 05:30:53;;;;;;;17.35;15.75;;;23.40;98.00;;;;;;5021504;28;20144;-56
2021/06/17 05:33:20;;;;;;;17.95;15.48;;;23.60;97.50;;;;;;5027087;28;20064;-52
2021/06/17 05:35:47;;;;;;;16.85;15.35;;;23.80;96.80;;;;;;5022157;28;20040;-51
2021/06/17 05:38:19;;;;;;;17.23;15.55;;;23.90;96.70;;;;;;5017736;28;20099;-56
2021/06/17 05:40:50;;;;;;;16.85;15.32;;;24.00;96.10;;;;;;5022014;28;20037;-52
2021/06/17 05:43:19;;;;;;;19.33;17.33;;;24.10;95.40;;;;;;5017267;28;20041;-49
2021/06/17 05:45:45;;;;;;;22.00;19.95;;;24.30;95.60;;;;;;5019214;28;20144;-51
2021/06/17 05:48:12;;;;;;;25.50;23.00;;;24.40;95.20;;;;;;5022813;28;20034;-53
2021/06/17 05:50:39;;;;;;;17.55;15.98;;;24.60;94.90;;;;;;5030376;28;20072;-50
2021/06/17 05:53:05;;;;;;;15.75;14.38;;;24.80;94.20;;;;;;5029729;28;20072;-49
2021/06/17 05:55:31;;;;;;;15.48;13.20;;;24.90;93.70;;;;;;5028207;28;20045;-52
2021/06/17 05:57:58;;;;;;;15.57;14.27;;;25.20;93.30;;;;;;5023953;28;20041;-55
2021/06/17 06:00:24;;;;;;;19.30;17.35;;;25.40;93.10;;;;;;5030369;28;20500;-50
2021/06/17 06:02:50;;;;;;;15.23;13.82;;;25.60;93.10;;;;;;5011213;28;20057;-51
2021/06/17 06:05:16;;;;;;;16.00;14.40;;;25.80;92.40;;;;;;5029464;28;20115;-51
2021/06/17 06:07:42;;;;;;;20.80;18.80;;;25.90;91.60;;;;;;5027863;28;20044;-53
2021/06/17 06:10:11;;;;;;;14.50;13.18;;;26.00;91.20;;;;;;5027484;28;20041;-51
2021/06/17 06:12:39;;;;;;;18.03;16.43;;;26.20;91.20;;;;;;5026169;28;20053;-52
2021/06/17 06:15:06;;;;;;;18.73;16.67;;;26.40;91.60;;;;;;5023552;28;20071;-52
2021/06/17 06:17:33;;;;;;;20.08;18.10;;;26.70;91.70;;;;;;5023441;28;20627;-52
2021/06/17 06:19:59;;;;;;;16.67;15.07;;;26.80;90.40;;;;;;5022728;28;20049;-51
2021/06/17 06:22:28;;;;;;;17.88;16.25;;;26.90;90.40;;;;;;5013515;28;20042;-50
2021/06/17 06:24:54;;;;;;;14.20;12.85;;;27.00;89.30;;;;;;5031607;28;20069;-49
2021/06/17 06:27:23;;;;;;;14.70;13.10;;;27.00;87.50;;;;;;5012307;28;20046;-52
2021/06/17 06:29:52;;;;;;;15.75;14.43;;;27.20;89.30;;;;;;5012999;28;20068;-51
2021/06/17 06:32:18;;;;;;;13.55;12.18;;;27.20;87.20;;;;;;5024809;28;20046;-52
2021/06/17 06:34:47;;;;;;;15.55;14.05;;;27.30;86.50;;;;;;5019966;28;20041;-50
2021/06/17 06:37:14;;;;;;;14.88;13.05;;;27.30;84.50;;;;;;5023820;28;20465;-51
2021/06/17 06:39:42;;;;;;;13.88;12.48;;;27.30;85.00;;;;;;5016202;28;20486;-56
2021/06/17 06:42:09;;;;;;;15.13;13.82;;;27.50;86.60;;;;;;5013138;28;20050;-53
2021/06/17 06:44:37;;;;;;;13.60;12.35;;;27.50;84.40;;;;;;5016702;28;20052;-49
2021/06/17 06:47:04;;;;;;;14.35;12.57;;;27.70;83.90;;;;;;5027641;28;20116;-48
2021/06/17 06:49:30;;;;;;;13.77;12.57;;;27.80;83.10;;;;;;5019553;28;20037;-55
2021/06/17 06:51:57;;;;;;;19.58;17.80;;;27.90;83.50;;;;;;5018022;28;20064;-51
2021/06/17 06:54:23;;;;;;;14.00;12.57;;;27.90;80.70;;;;;;5015551;28;20037;-57
2021/06/17 06:56:49;;;;;;;13.70;12.40;;;28.00;80.90;;;;;;5018128;28;20457;-51
2021/06/17 06:59:16;;;;;;;14.23;13.00;;;28.10;80.60;;;;;;5021563;28;20077;-54
2021/06/17 07:01:43;;;;;;;14.05;12.50;;;28.30;81.30;;;;;;5012580;28;20048;-50
2021/06/17 07:04:11;;;;;;;17.27;15.57;;;28.50;81.30;;;;;;5019540;28;20068;-55
2021/06/17 07:06:39;;;;;;;16.02;14.60;;;28.50;78.80;;;;;;5019726;28;20045;-51
2021/06/17 07:09:06;;;;;;;12.45;11.35;;;28.60;77.70;;;;;;5026913;28;20049;-53
2021/06/17 07:11:33;;;;;;;16.63;15.05;;;28.70;77.50;;;;;;5023934;28;20057;-54
2021/06/17 07:13:59;;;;;;;11.57;9.73;;;28.90;76.20;;;;;;5013221;28;20086;-52
2021/06/17 07:16:28;;;;;;;15.35;13.93;;;29.00;75.00;;;;;;5021327;28;20057;-55
2021/06/17 07:18:55;;;;;;;12.15;11.00;;;28.90;74.20;;;;;;5027874;28;20386;-53
2021/06/17 07:21:24;;;;;;;10.18;9.18;;;29.00;74.00;;;;;;5026452;28;20077;-53
2021/06/17 07:23:53;;;;;;;13.20;11.90;;;29.00;73.70;;;;;;5026544;28;20157;-47
2021/06/17 07:26:26;;;;;;;10.68;9.43;;;29.10;72.70;;;;;;5016317;28;20045;-53
2021/06/17 07:28:54;;;;;;;11.60;10.57;;;29.00;72.80;;;;;;5027378;28;20084;-53
2021/06/17 07:31:23;;;;;;;10.82;9.10;;;29.10;71.80;;;;;;5027038;28;20456;-52
2021/06/17 07:33:49;;;;;;;17.23;15.60;;;29.50;72.20;;;;;;5013166;28;20045;-51
2021/06/17 07:36:17;;;;;;;12.05;10.85;;;29.60;72.00;;;;;;5010380;28;20042;-52
2021/06/17 07:38:45;;;;;;;12.02;10.82;;;29.70;72.30;;;;;;5017306;28;20049;-54
2021/06/17 07:41:12;;;;;;;16.40;14.75;;;29.80;72.40;;;;;;5021057;28;20119;-49
2021/06/17 07:43:41;;;;;;;9.55;8.50;;;30.00;71.70;;;;;;5020320;28;20048;-49
2021/06/17 07:46:08;;;;;;;11.27;9.02;;;30.20;69.60;;;;;;5018364;28;20045;-54
2021/06/17 07:48:38;;;;;;;11.18;8.05;;;30.40;66.90;;;;;;5022280;28;20108;-48
2021/06/17 07:51:09;;;;;;;8.60;7.80;;;30.40;60.30;;;;;;5023659;28;20046;-53
2021/06/17 07:53:35;;;;;;;10.82;7.57;;;30.40;65.20;;;;;;5012653;28;20054;-51
2021/06/17 07:56:02;;;;;;;22.33;20.05;;;30.40;66.00;;;;;;5014506;28;20096;-52
2021/06/17 07:58:28;;;;;;;14.93;12.60;;;30.70;66.90;;;;;;5018486;28;20528;-50
2021/06/17 08:00:54;;;;;;;9.30;8.40;;;31.10;65.40;;;;;;5011057;28;20053;-51
2021/06/17 08:03:27;;;;;;;13.40;12.15;;;31.20;63.60;;;;;;5028733;28;20043;-48
2021/06/17 08:05:54;;;;;;;18.80;17.15;;;31.40;63.10;;;;;;5022352;28;20401;-47
2021/06/17 08:08:24;;;;;;;9.90;8.90;;;31.50;62.20;;;;;;5021369;28;20042;-54
2021/06/17 08:10:51;;;;;;;9.55;8.32;;;31.70;62.70;;;;;;5042242;28;20042;-52
2021/06/17 08:13:22;;;;;;;10.35;9.00;;;31.80;60.30;;;;;;5017284;28;20148;-53
2021/06/17 08:15:52;;;;;;;11.05;9.93;;;31.90;60.50;;;;;;5026945;28;20061;-54
2021/06/17 08:18:20;;;;;;;9.65;7.30;;;32.30;60.40;;;;;;5021665;28;20846;-56
2021/06/17 08:20:50;;;;;;;7.47;6.40;;;32.20;59.90;;;;;;5018632;28;20037;-53
2021/06/17 08:23:21;;;;;;;9.10;6.82;;;32.60;58.00;;;;;;5007429;28;20155;-54
2021/06/17 08:25:50;;;;;;;9.15;6.53;;;32.40;57.30;;;;;;5007365;28;20049;-54
2021/06/17 08:28:24;;;;;;;10.38;6.32;;;32.50;56.90;;;;;;5023974;28;20112;-56
2021/06/17 08:30:51;;;;;;;10.90;7.30;;;32.60;55.50;;;;;;5014269;28;20053;-54
2021/06/17 08:33:22;;;;;;;11.73;7.05;;;32.40;53.70;;;;;;5025212;28;20053;-51
2021/06/17 08:35:51;;;;;;;26.00;23.55;;;32.50;56.60;;;;;;5024712;28;20037;-55
2021/06/17 08:38:24;;;;;;;10.90;9.75;;;32.60;55.50;;;;;;5026686;28;20084;-55
2021/06/17 08:40:53;;;;;;;11.25;6.72;;;32.70;54.00;;;;;;5022883;28;20050;-58
2021/06/17 08:43:22;;;;;;;10.02;6.70;;;32.70;53.90;;;;;;5018224;28;20168;-53
2021/06/17 08:45:51;;;;;;;9.32;6.25;;;32.80;54.90;;;;;;5024740;28;20148;-55
2021/06/17 08:48:19;;;;;;;7.22;6.50;;;32.80;55.90;;;;;;5026421;28;20041;-55
2021/06/17 08:50:48;;;;;;;9.70;6.93;;;33.20;53.80;;;;;;5020785;28;20037;-52
2021/06/17 08:53:18;;;;;;;10.82;7.63;;;33.10;53.00;;;;;;5018170;28;20046;-52
2021/06/17 08:55:47;;;;;;;7.90;5.93;;;33.00;53.20;;;;;;5026581;28;20649;-56
2021/06/17 08:58:13;;;;;;;7.50;6.15;;;33.40;54.50;;;;;;5026615;28;20051;-57
2021/06/17 09:00:46;;;;;;;8.20;6.78;;;33.50;53.60;;;;;;5026166;28;20407;-56
2021/06/17 09:03:17;;;;;;;9.88;8.45;;;33.70;52.40;;;;;;5007610;28;20041;-55
2021/06/17 09:05:55;;;;;;;8.45;5.70;;;33.70;50.80;;;;;;5019495;28;20046;-55
2021/06/17 09:08:33;;;;;;;9.73;5.95;;;33.60;51.20;;;;;;5028375;28;20053;-55
2021/06/17 09:11:01;;;;;;;10.93;6.22;;;33.70;51.50;;;;;;5035547;28;20049;-55
2021/06/17 09:13:33;;;;;;;7.35;4.70;;;33.80;49.80;;;;;;5022258;28;20069;-56
2021/06/17 09:16:00;;;;;;;6.68;4.57;;;34.00;49.90;;;;;;5019404;28;20049;-52
2021/06/17 09:18:27;;;;;;;10.45;5.50;;;34.00;48.90;;;;;;5020823;28;20397;-56
2021/06/17 09:21:14;;;;;;;6.13;5.38;;;34.20;47.20;;;;;;5025593;28;20136;-54
2021/06/17 09:23:45;;;;;;;7.03;5.35;;;34.60;49.70;;;;;;5019320;28;20042;-56
2021/06/17 09:26:19;;;;;;;12.18;8.07;;;34.70;48.30;;;;;;5018689;28;20087;-55
2021/06/17 09:29:00;;;;;;;7.07;5.15;;;34.80;47.00;;;;;;5025244;28;20107;-56
2021/06/17 09:31:33;;;;;;;14.25;5.03;;;34.80;44.50;;;;;;5015842;28;20046;-53
2021/06/17 09:34:03;;;;;;;8.80;4.90;;;34.80;44.80;;;;;;5018501;28;20046;-54
2021/06/17 09:36:35;;;;;;;7.40;4.45;;;34.90;46.10;;;;;;5015816;28;20045;-56
2021/06/17 09:39:18;;;;;;;11.50;8.80;;;34.90;45.20;;;;;;5022445;28;20104;-57
2021/06/17 09:41:48;;;;;;;8.75;7.20;;;35.20;47.60;;;;;;5023877;28;20042;-55
2021/06/17 09:44:41;;;;;;;9.00;4.25;;;35.40;45.60;;;;;;5025012;28;20203;-52
2021/06/17 09:47:22;;;;;;;5.30;4.10;;;35.70;43.40;;;;;;5019276;28;20041;-54
2021/06/17 09:49:51;;;;;;;6.82;4.00;;;35.60;43.40;;;;;;5020266;28;20041;-57
2021/06/17 09:52:35;;;;;;;7.20;5.03;;;36.00;44.40;;;;;;5026053;28;20440;-51
2021/06/17 09:55:05;;;;;;;7.32;4.40;;;36.10;44.10;;;;;;5023142;28;20037;-53
2021/06/17 09:57:40;;;;;;;6.68;4.90;;;36.20;46.30;;;;;;5023255;28;20066;-54
2021/06/17 10:00:12;;;;;;;7.38;4.97;;;36.20;43.50;;;;;;5025662;28;20045;-52
2021/06/17 10:02:41;;;;;;;7.90;4.40;;;36.30;42.50;;;;;;5027427;28;20045;-54
2021/06/17 10:05:18;;;;;;;13.10;11.35;;;36.10;40.30;;;;;;5028058;28;20037;-53
2021/06/17 10:07:44;;;;;;;6.20;4.22;;;36.30;43.00;;;;;;5028930;28;20470;-51
2021/06/17 10:10:15;;;;;;;13.77;9.88;;;36.30;41.90;;;;;;5013935;28;20046;-51
2021/06/17 10:12:44;;;;;;;11.88;8.82;;;36.10;41.40;;;;;;5027121;28;20049;-49
2021/06/17 10:15:14;;;;;;;6.88;4.80;;;36.30;43.10;;;;;;5028071;28;20045;-49
2021/06/17 10:17:43;;;;;;;11.27;6.03;;;36.20;42.20;;;;;;5022888;28;20045;-52
2021/06/17 10:20:13;;;;;;;10.40;7.75;;;36.20;42.00;;;;;;5020297;28;20641;-54
2021/06/17 10:22:43;;;;;;;10.32;9.35;;;36.50;41.90;;;;;;5018745;28;20740;-52
2021/06/17 10:25:28;;;;;;;6.88;4.30;;;36.60;40.60;;;;;;5024134;28;20060;-51
2021/06/17 10:27:58;;;;;;;7.13;5.13;;;36.40;41.20;;;;;;5023134;28;20089;-51
2021/06/17 10:30:41;;;;;;;7.25;5.45;;;36.60;41.20;;;;;;5015430;28;20046;-53
2021/06/17 10:33:09;;;;;;;6.75;4.45;;;36.70;42.40;;;;;;5025285;28;20483;-56
2021/06/17 10:35:38;;;;;;;5.13;3.92;;;36.70;41.70;;;;;;5022626;28;20042;-52
2021/06/17 10:38:08;;;;;;;5.82;3.65;;;36.90;40.70;;;;;;5023892;28;20084;-49
2021/06/17 10:40:43;;;;;;;5.00;3.60;;;37.00;40.30;;;;;;5028279;28;20077;-52
2021/06/17 10:43:26;;;;;;;6.47;4.60;;;37.20;38.20;;;;;;5020369;28;20057;-50
2021/06/17 10:45:58;;;;;;;6.20;4.30;;;37.10;38.20;;;;;;5024213;28;20053;-49
2021/06/17 10:48:43;;;;;;;6.85;3.40;;;37.10;38.00;;;;;;5025929;28;20115;-51
2021/06/17 10:51:14;;;;;;;4.72;3.67;;;37.60;38.80;;;;;;5016565;28;20140;-51
2021/06/17 10:53:46;;;;;;;5.55;3.30;;;37.60;39.70;;;;;;5029070;28;20052;-50
2021/06/17 10:56:42;;;;;;;4.20;3.00;;;37.70;38.90;;;;;;5024706;28;20072;-50
2021/06/17 10:59:11;;;;;;;6.30;3.75;;;37.90;38.50;;;;;;5028610;28;20053;-51
2021/06/17 11:01:44;;;;;;;6.78;3.67;;;37.70;38.00;;;;;;5025503;28;20124;-50
2021/06/17 11:04:14;;;;;;;5.93;3.42;;;37.70;38.90;;;;;;5026296;28;20042;-53
2021/06/17 11:06:55;;;;;;;5.03;3.58;;;37.40;37.30;;;;;;5017583;28;20088;-52
2021/06/17 11:09:46;;;;;;;8.20;6.32;;;37.50;39.20;;;;;;5024302;28;20461;-51
2021/06/17 11:12:22;;;;;;;5.05;3.47;;;37.30;37.80;;;;;;5027872;28;20041;-49
2021/06/17 11:14:54;;;;;;;4.65;3.58;;;37.80;38.80;;;;;;5015657;28;20046;-50
2021/06/17 11:17:30;;;;;;;7.70;4.90;;;37.60;37.90;;;;;;5022003;28;20045;-54
2021/06/17 11:20:07;;;;;;;8.10;4.78;;;37.70;38.00;;;;;;5018780;28;20103;-51
2021/06/17 11:22:44;;;;;;;5.55;4.22;;;37.90;38.80;;;;;;5024664;28;20099;-53
2021/06/17 11:25:16;;;;;;;6.45;3.70;;;38.00;37.40;;;;;;5023771;28;20045;-53
2021/06/17 11:28:06;;;;;;;4.35;3.60;;;38.10;37.70;;;;;;5027124;28;20053;-56
2021/06/17 11:30:38;;;;;;;6.65;3.50;;;37.80;36.20;;;;;;5026259;28;20485;-53
2021/06/17 11:33:17;;;;;;;5.25;3.33;;;37.60;38.00;;;;;;5017711;28;20038;-52
2021/06/17 11:35:49;;;;;;;7.60;6.07;;;37.60;36.60;;;;;;5024280;28;20046;-52
2021/06/17 11:38:31;;;;;;;7.15;4.63;;;37.50;36.90;;;;;;5019211;28;20047;-55
2021/06/17 11:40:58;;;;;;;15.05;11.00;;;37.70;37.60;;;;;;5021739;28;20042;-50
2021/06/17 11:43:31;;;;;;;10.88;6.10;;;37.60;37.90;;;;;;5012226;28;20545;-50
2021/06/17 11:46:00;;;;;;;11.60;4.10;;;37.20;37.90;;;;;;5017142;28;20053;-49
2021/06/17 11:48:29;;;;;;;5.23;4.17;;;37.40;37.70;;;;;;5019436;28;20069;-52
2021/06/17 11:51:01;;;;;;;6.00;3.87;;;37.60;38.00;;;;;;5014902;28;20355;-50
2021/06/17 11:53:28;;;;;;;6.20;3.50;;;37.50;36.50;;;;;;5018821;28;20045;-53
2021/06/17 11:55:57;;;;;;;9.43;4.78;;;37.20;37.20;;;;;;5012747;28;20037;-53
2021/06/17 11:58:28;;;;;;;4.83;4.27;;;37.30;37.80;;;;;;5023553;28;20497;-56
2021/06/17 12:00:58;;;;;;;6.10;3.72;;;37.20;37.70;;;;;;5025049;28;20057;-54
2021/06/17 12:03:26;;;;;;;;;;;37.30;37.60;;;;;;5025374;28;20478;-60
2021/06/17 12:06:05;;;;;;;4.95;3.60;;;37.20;37.10;;;;;;5026153;28;20453;-56
2021/06/17 12:08:34;;;;;;;6.20;3.30;;;37.30;35.30;;;;;;5026366;28;20060;-55
2021/06/17 12:11:21;;;;;;;13.50;4.75;;;37.30;37.60;;;;;;5021020;28;20049;-54
2021/06/17 12:13:55;;;;;;;5.35;3.10;;;37.60;37.70;;;;;;5021376;28;20050;-57
2021/06/17 12:16:22;;;;;;;6.50;3.10;;;37.20;35.80;;;;;;5024235;28;20042;-58
2021/06/17 12:18:50;;;;;;;5.03;3.88;;;37.60;38.00;;;;;;5021343;28;20045;-59
2021/06/17 12:21:28;;;;;;;7.70;6.18;;;36.90;36.00;;;;;;5018727;28;20041;-56
2021/06/17 12:23:59;;;;;;;5.75;3.22;;;37.20;37.80;;;;;;5024336;28;20042;-57
2021/06/17 12:26:34;;;;;;;16.08;14.80;;;37.00;35.70;;;;;;5026179;28;20045;-54
2021/06/17 12:29:09;;;;;;;7.28;3.45;;;37.30;36.60;;;;;;5021341;28;20065;-57
2021/06/17 12:31:38;;;;;;;5.15;2.88;;;37.60;36.50;;;;;;5023302;28;20054;-56
2021/06/17 12:34:10;;;;;;;5.88;2.55;;;37.40;35.70;;;;;;5021699;28;20050;-55
2021/06/17 12:36:37;;;;;;;4.25;2.40;;;37.20;35.80;;;;;;5022901;28;20049;-58
2021/06/17 12:39:11;;;;;;;4.43;3.45;;;37.50;36.70;;;;;;5027059;28;20046;-54
2021/06/17 12:41:43;;;;;;;6.68;3.17;;;37.50;33.90;;;;;;5021316;28;20059;-55
2021/06/17 12:44:14;;;;;;;8.07;6.10;;;37.60;34.40;;;;;;5027988;28;20102;-58
2021/06/17 12:46:40;;;;;;;9.68;6.70;;;37.40;35.00;;;;;;5033411;28;20501;-56
2021/06/17 12:52:10;;;;;;;5.75;4.82;;;37.40;35.40;;;;;;4982845;28;20054;-54
2021/06/17 12:54:42;;;;;;;6.03;4.30;;;37.80;36.90;;;;;;4975744;28;20058;-53
2021/06/17 12:57:12;;;;;;;6.25;3.40;;;37.60;36.00;;;;;;4976780;28;20085;-55
2021/06/17 12:59:59;;;;;;;6.70;2.47;;;37.70;34.80;;;;;;4978437;28;20054;-55